createdAt,value
2022-12-13T00:02:01.985Z,102.60
2022-12-13T00:04:30.376Z,110.20
2022-12-13T00:06:58.659Z,103.27
2022-12-13T00:09:27.152Z,92.57
2022-12-13T00:11:55.492Z,95.30
2022-12-13T00:14:23.819Z,95.53
2022-12-13T00:16:52.376Z,100.43
2022-12-13T00:19:22.040Z,95.30
2022-12-13T00:21:50.479Z,98.33
2022-12-13T00:24:18.944Z,103.73
2022-12-13T00:26:47.198Z,93.33
2022-12-13T00:29:15.522Z,91.00
2022-12-13T00:31:58.570Z,95.23
2022-12-13T00:34:29.531Z,96.00
2022-12-13T00:36:59.790Z,95.07
2022-12-13T00:39:28.293Z,94.07
2022-12-13T00:41:56.646Z,96.07
2022-12-13T00:44:25.271Z,98.00
2022-12-13T00:46:53.518Z,94.63
2022-12-13T00:49:22.012Z,97.23
2022-12-13T00:51:51.665Z,97.33
2022-12-13T00:54:19.898Z,96.03
2022-12-13T00:56:48.251Z,91.77
2022-12-13T00:59:16.837Z,94.33
2022-12-13T01:01:46.023Z,93.90
2022-12-13T01:04:15.227Z,88.97
2022-12-13T01:06:45.869Z,95.63
2022-12-13T01:09:20.766Z,82.70
2022-12-13T01:11:50.161Z,83.10
2022-12-13T01:14:19.256Z,81.37
2022-12-13T01:16:47.633Z,95.03
2022-12-13T01:19:16.366Z,87.83
2022-12-13T01:21:44.599Z,93.07
2022-12-13T01:24:12.988Z,100.77
2022-12-13T01:26:42.774Z,87.93
2022-12-13T01:29:11.567Z,96.70
2022-12-13T01:31:41.628Z,91.13
2022-12-13T01:34:11.417Z,95.27
2022-12-13T01:36:41.099Z,91.93
2022-12-13T01:39:14.775Z,85.97
2022-12-13T01:41:48.160Z,94.87
2022-12-13T01:45:04.778Z,91.37
2022-12-13T01:47:40.859Z,92.77
2022-12-13T01:50:13.937Z,97.63
2022-12-13T01:52:44.178Z,92.13
2022-12-13T01:55:13.695Z,93.97
2022-12-13T01:57:46.107Z,96.00
2022-12-13T02:00:16.429Z,80.87
2022-12-13T02:02:45.587Z,91.63
2022-12-13T02:05:23.141Z,96.83
2022-12-13T02:07:52.435Z,83.43
2022-12-13T02:10:21.246Z,83.17
2022-12-13T02:12:51.594Z,92.23
2022-12-13T02:15:22.031Z,91.20
2022-12-13T02:18:07.959Z,88.30
2022-12-13T02:20:58.923Z,96.87
2022-12-13T02:24:13.323Z,93.30
2022-12-13T02:27:09.867Z,91.97
2022-12-13T02:30:26.893Z,90.70
2022-12-13T02:33:21.358Z,94.33
2022-12-13T02:36:00.691Z,100.97
2022-12-13T02:38:35.289Z,91.97
2022-12-13T02:41:14.877Z,87.07
2022-12-13T02:43:51.704Z,87.07
2022-12-13T02:46:34.082Z,91.30
2022-12-13T02:49:04.839Z,105.30
2022-12-13T02:51:34.372Z,93.37
2022-12-13T02:54:02.731Z,104.60
2022-12-13T02:56:32.951Z,92.57
2022-12-13T02:59:05.046Z,107.87
2022-12-13T03:01:50.704Z,110.87
2022-12-13T03:04:33.978Z,102.77
2022-12-13T03:07:11.745Z,97.57
2022-12-13T03:09:50.626Z,98.73
2022-12-13T03:12:49.281Z,92.90
2022-12-13T03:15:23.117Z,95.43
2022-12-13T03:17:59.858Z,113.27
2022-12-13T03:20:30.836Z,101.33
2022-12-13T03:22:59.458Z,103.23
2022-12-13T03:25:32.967Z,94.87
2022-12-13T03:28:02.904Z,91.30
2022-12-13T03:30:32.354Z,94.37
2022-12-13T03:33:03.819Z,98.90
2022-12-13T03:35:44.845Z,94.67
2022-12-13T03:38:22.576Z,95.27
2022-12-13T03:40:54.216Z,95.03
2022-12-13T03:43:23.345Z,102.27
2022-12-13T03:45:52.616Z,100.67
2022-12-13T03:48:23.015Z,87.63
2022-12-13T03:50:55.225Z,92.43
2022-12-13T03:53:33.187Z,101.40
2022-12-13T03:56:03.690Z,89.80
2022-12-13T03:58:36.077Z,95.50
2022-12-13T04:01:07.996Z,101.67
2022-12-13T04:03:36.607Z,99.03
2022-12-13T04:06:07.463Z,101.77
2022-12-13T04:08:36.880Z,90.53
2022-12-13T04:11:26.800Z,95.23
2022-12-13T04:13:57.116Z,88.67
2022-12-13T04:16:25.942Z,92.97
2022-12-13T04:18:54.220Z,98.83
2022-12-13T04:21:24.760Z,85.93
2022-12-13T04:23:53.024Z,97.60
2022-12-13T04:26:21.436Z,83.33
2022-12-13T04:28:54.516Z,93.63
2022-12-13T04:31:23.854Z,88.00
2022-12-13T04:33:52.307Z,92.43
2022-12-13T04:36:31.838Z,92.63
2022-12-13T04:39:03.157Z,89.03
2022-12-13T04:41:36.828Z,99.83
2022-12-13T04:44:06.847Z,91.03
2022-12-13T04:46:55.088Z,89.40
2022-12-13T04:49:29.766Z,88.93
2022-12-13T04:52:01.163Z,94.27
2022-12-13T04:54:35.698Z,93.57
2022-12-13T04:57:07.659Z,81.30
2022-12-13T04:59:36.111Z,87.10
2022-12-13T05:02:05.922Z,89.43
2022-12-13T05:04:34.531Z,87.77
2022-12-13T05:07:02.988Z,92.20
2022-12-13T05:09:32.795Z,85.70
2022-12-13T05:12:02.051Z,97.60
2022-12-13T05:14:31.147Z,100.77
2022-12-13T05:16:59.885Z,100.17
2022-12-13T05:19:30.454Z,88.80
2022-12-13T05:22:00.995Z,115.63
2022-12-13T05:24:32.435Z,103.73
2022-12-13T05:27:01.201Z,110.77
2022-12-13T05:29:29.851Z,105.70
2022-12-13T05:31:58.346Z,109.57
2022-12-13T05:34:26.853Z,115.97
2022-12-13T05:36:55.147Z,114.00
2022-12-13T05:39:27.972Z,104.03
2022-12-13T05:42:01.787Z,106.37
2022-12-13T05:44:32.233Z,109.00
2022-12-13T05:47:01.953Z,107.57
2022-12-13T05:49:30.953Z,96.63
2022-12-13T05:51:59.355Z,111.27
2022-12-13T05:54:27.739Z,113.80
2022-12-13T05:56:56.681Z,98.30
2022-12-13T05:59:26.408Z,111.30
2022-12-13T06:01:54.852Z,102.27
2022-12-13T06:04:23.604Z,93.63
2022-12-13T06:06:52.633Z,99.03
2022-12-13T06:09:21.369Z,101.70
2022-12-13T06:11:50.310Z,105.50
2022-12-13T06:14:21.559Z,100.50
2022-12-13T06:16:53.189Z,104.73
2022-12-13T06:19:21.989Z,109.60
2022-12-13T06:21:50.349Z,112.67
2022-12-13T06:24:21.121Z,109.97
2022-12-13T06:26:51.219Z,105.53
2022-12-13T06:29:23.985Z,108.37
2022-12-13T06:32:01.834Z,109.93
2022-12-13T06:34:33.804Z,116.83
2022-12-13T06:37:02.410Z,112.17
2022-12-13T06:39:33.183Z,106.47
2022-12-13T06:42:03.341Z,102.17
2022-12-13T06:44:31.843Z,110.70
2022-12-13T06:47:10.280Z,117.43
2022-12-13T06:49:43.473Z,106.97
2022-12-13T06:52:13.787Z,112.80
2022-12-13T06:54:42.559Z,112.60
2022-12-13T06:57:11.159Z,118.50
2022-12-13T06:59:39.727Z,119.23
2022-12-13T07:02:15.503Z,103.80
2022-12-13T07:04:56.179Z,111.80
2022-12-13T07:07:25.958Z,118.13
2022-12-13T07:09:54.722Z,113.17
2022-12-13T07:12:23.446Z,117.90
2022-12-13T07:14:52.232Z,114.73
2022-12-13T07:17:32.660Z,104.43
2022-12-13T07:20:07.971Z,115.43
2022-12-13T07:22:44.928Z,119.10
2022-12-13T07:25:27.947Z,113.47
2022-12-13T07:28:01.401Z,116.37
2022-12-13T07:30:32.585Z,130.50
2022-12-13T07:33:03.104Z,119.50
2022-12-13T07:35:32.441Z,113.17
2022-12-13T07:38:06.070Z,115.47
2022-12-13T07:40:35.222Z,105.27
2022-12-13T07:43:03.581Z,115.67
2022-12-13T07:45:31.841Z,112.33
2022-12-13T07:48:05.362Z,111.30
2022-12-13T07:50:37.030Z,99.50
2022-12-13T07:53:07.648Z,109.37
2022-12-13T07:55:37.468Z,114.40
2022-12-13T07:58:07.424Z,107.80
2022-12-13T08:00:35.763Z,107.93
2022-12-13T08:03:06.653Z,108.37
2022-12-13T08:05:38.612Z,115.03
2022-12-13T08:08:10.457Z,111.63
2022-12-13T08:10:39.609Z,124.13
2022-12-13T08:13:08.038Z,121.93
2022-12-13T08:15:36.330Z,131.10
2022-12-13T08:18:06.507Z,117.80
2022-12-13T08:20:34.774Z,146.17
2022-12-13T08:23:03.188Z,143.00
2022-12-13T08:25:32.097Z,130.57
2022-12-13T08:28:02.054Z,149.53
2022-12-13T08:30:32.515Z,130.07
2022-12-13T08:33:04.722Z,131.50
2022-12-13T08:35:35.377Z,120.87
2022-12-13T08:38:04.419Z,129.53
2022-12-13T08:40:32.812Z,121.47
2022-12-13T08:43:01.053Z,117.80
2022-12-13T08:45:29.500Z,137.37
2022-12-13T08:48:00.648Z,134.80
2022-12-13T08:50:30.551Z,131.70
2022-12-13T08:53:00.281Z,141.53
2022-12-13T08:55:31.319Z,114.13
2022-12-13T08:58:06.997Z,125.37
2022-12-13T09:00:35.414Z,128.57
2022-12-13T09:03:05.021Z,131.80
2022-12-13T09:05:35.211Z,129.63
2022-12-13T09:08:25.049Z,124.20
2022-12-13T09:11:11.217Z,122.27
2022-12-13T09:13:50.551Z,142.20
2022-12-13T09:16:24.520Z,129.53
2022-12-13T09:18:55.216Z,121.40
2022-12-13T09:21:31.566Z,118.77
2022-12-13T09:24:02.450Z,121.43
2022-12-13T09:26:38.262Z,126.77
2022-12-13T09:29:11.076Z,121.23
2022-12-13T09:31:41.129Z,120.07
2022-12-13T09:34:10.146Z,124.33
2022-12-13T09:36:38.709Z,124.63
2022-12-13T09:39:08.434Z,112.10
2022-12-13T09:41:41.366Z,122.33
2022-12-13T09:44:32.731Z,114.43
2022-12-13T09:47:13.327Z,118.43
2022-12-13T09:49:51.674Z,115.40
2022-12-13T09:52:24.263Z,116.37
2022-12-13T09:54:57.189Z,119.20
2022-12-13T09:57:31.267Z,119.13
2022-12-13T10:00:02.465Z,107.77
2022-12-13T10:02:33.700Z,118.97
2022-12-13T10:05:22.281Z,111.20
2022-12-13T10:07:54.346Z,122.87
2022-12-13T10:10:24.351Z,102.17
2022-12-13T10:13:01.961Z,112.47
2022-12-13T10:15:32.969Z,114.80
2022-12-13T10:18:04.247Z,105.30
2022-12-13T10:20:34.505Z,97.63
2022-12-13T10:23:31.464Z,102.73
2022-12-13T10:26:02.897Z,100.93
2022-12-13T10:28:34.723Z,102.87
2022-12-13T10:31:03.840Z,111.43
2022-12-13T10:33:35.073Z,108.03
2022-12-13T10:36:16.481Z,97.73
2022-12-13T10:38:47.352Z,107.97
2022-12-13T10:41:36.710Z,102.93
2022-12-13T10:44:25.939Z,103.33
2022-12-13T10:47:05.797Z,111.30
2022-12-13T10:49:42.447Z,115.53
2022-12-13T10:52:30.640Z,107.20
2022-12-13T10:55:04.596Z,112.97
2022-12-13T10:57:54.580Z,109.30
2022-12-13T11:00:37.747Z,110.03
2022-12-13T11:03:07.221Z,111.83
2022-12-13T11:05:37.646Z,106.07
2022-12-13T11:08:19.333Z,106.57
2022-12-13T11:10:57.708Z,108.13
2022-12-13T11:13:36.899Z,113.77
2022-12-13T11:16:13.041Z,109.83
2022-12-13T11:18:41.588Z,106.67
2022-12-13T11:21:11.229Z,102.13
2022-12-13T11:23:44.949Z,104.93
2022-12-13T11:26:24.262Z,107.37
2022-12-13T11:29:16.188Z,107.30
2022-12-13T11:31:55.436Z,108.00
2022-12-13T11:34:35.256Z,103.63
2022-12-13T11:37:19.222Z,102.73
2022-12-13T11:39:51.781Z,102.13
2022-12-13T11:42:27.263Z,92.33
2022-12-13T11:45:07.976Z,97.33
2022-12-13T11:47:44.944Z,100.10
2022-12-13T11:50:32.678Z,99.87
2022-12-13T11:53:24.371Z,95.57
2022-12-13T11:55:58.793Z,100.40
2022-12-13T12:01:32.406Z,87.57
2022-12-13T12:04:18.178Z,92.37
2022-12-13T12:06:53.143Z,94.13
2022-12-13T12:09:25.421Z,89.87
2022-12-13T12:12:02.198Z,93.00
2022-12-13T12:14:42.196Z,92.20
2022-12-13T12:17:15.773Z,85.07
2022-12-13T12:19:47.923Z,86.43
2022-12-13T12:22:32.271Z,82.30
2022-12-13T12:25:22.753Z,86.33
2022-12-13T12:28:00.414Z,85.80
2022-12-13T12:30:41.419Z,83.20
2022-12-13T12:33:25.093Z,84.73
2022-12-13T12:36:15.437Z,81.17
2022-12-13T12:39:13.297Z,80.23
2022-12-13T12:42:00.263Z,87.80
2022-12-13T12:44:40.864Z,83.70
2022-12-13T12:47:56.476Z,78.43
2022-12-13T12:50:43.051Z,81.73
2022-12-13T12:53:31.709Z,77.03
2022-12-13T12:56:18.285Z,72.30
2022-12-13T12:58:53.271Z,72.97
2022-12-13T13:01:43.341Z,75.40
2022-12-13T13:04:22.627Z,72.70
2022-12-13T13:07:01.921Z,75.13
2022-12-13T13:09:32.489Z,65.83
2022-12-13T13:12:29.680Z,61.70
2022-12-13T13:14:53.594Z,56.93
2022-12-13T13:17:47.745Z,57.87
2022-12-13T13:20:26.941Z,45.13
2022-12-13T13:23:38.871Z,44.63
2022-12-13T13:26:16.416Z,43.47
2022-12-13T13:28:43.568Z,40.60
2022-12-13T13:31:12.834Z,41.30
2022-12-13T13:33:48.118Z,40.20
2022-12-13T13:36:47.940Z,42.83
2022-12-13T13:39:38.811Z,42.97
2022-12-13T13:42:18.548Z,40.60
2022-12-13T13:45:23.654Z,44.93
2022-12-13T13:48:20.833Z,44.27
2022-12-13T13:51:31.425Z,42.40
2022-12-13T13:54:37.221Z,45.03
2022-12-13T14:01:12.402Z,42.43
2022-12-13T14:04:38.115Z,43.17
2022-12-13T14:07:52.364Z,44.83
2022-12-13T14:10:36.591Z,44.23
2022-12-13T14:13:59.127Z,49.87
2022-12-13T14:17:19.122Z,47.07
2022-12-13T14:20:32.406Z,47.80
2022-12-13T14:23:08.134Z,46.07
2022-12-13T14:26:18.348Z,46.60
2022-12-13T14:28:51.060Z,53.03
2022-12-13T14:31:23.651Z,48.73
2022-12-13T14:33:54.755Z,52.00
2022-12-13T14:36:32.267Z,50.73
2022-12-13T14:39:02.981Z,46.43
2022-12-13T14:41:32.698Z,52.17
2022-12-13T14:44:16.189Z,49.07
2022-12-13T14:46:57.218Z,54.47
2022-12-13T14:49:28.554Z,55.73
2022-12-13T14:52:01.640Z,51.67
2022-12-13T14:54:39.756Z,53.10
2022-12-13T14:57:19.180Z,53.07
2022-12-13T14:59:50.394Z,54.27
2022-12-13T15:02:30.881Z,53.63
2022-12-13T15:05:02.044Z,54.43
2022-12-13T15:07:36.274Z,52.33
2022-12-13T15:10:19.133Z,51.97
2022-12-13T15:12:49.859Z,60.90
2022-12-13T15:15:26.348Z,56.80
2022-12-13T15:18:15.108Z,58.63
2022-12-13T15:20:43.509Z,64.40
2022-12-13T15:23:20.597Z,71.87
2022-12-13T15:25:56.944Z,75.17
2022-12-13T15:28:29.447Z,77.37
2022-12-13T15:31:00.343Z,87.13
2022-12-13T15:33:35.258Z,81.57
2022-12-13T15:36:11.335Z,80.60
2022-12-13T15:38:43.190Z,82.97
2022-12-13T15:41:19.301Z,82.40
2022-12-13T15:43:52.553Z,77.47
2022-12-13T15:46:27.131Z,78.77
2022-12-13T15:48:57.694Z,78.23
2022-12-13T15:51:29.243Z,88.00
2022-12-13T15:54:21.194Z,86.23
2022-12-13T15:57:13.634Z,85.10
2022-12-13T15:59:46.054Z,80.40
2022-12-13T16:02:20.133Z,97.27
2022-12-13T16:04:49.042Z,94.53
2022-12-13T16:07:26.219Z,86.93
2022-12-13T16:09:55.750Z,88.73
2022-12-13T16:12:29.770Z,91.13
2022-12-13T16:15:20.559Z,93.17
2022-12-13T16:18:07.888Z,89.40
2022-12-13T16:20:36.642Z,91.27
2022-12-13T16:23:08.869Z,88.20
2022-12-13T16:25:37.900Z,102.43
2022-12-13T16:28:06.583Z,97.00
2022-12-13T16:31:04.095Z,96.97
2022-12-13T16:33:32.897Z,99.13
2022-12-13T16:36:01.351Z,96.93
2022-12-13T16:38:30.105Z,96.83
2022-12-13T16:41:09.304Z,97.17
2022-12-13T16:43:45.737Z,94.73
2022-12-13T16:47:15.220Z,105.17
2022-12-13T16:49:18.824Z,99.53
2022-12-13T16:51:48.834Z,96.10
2022-12-13T16:54:19.998Z,93.60
2022-12-13T16:56:48.937Z,99.17
2022-12-13T16:59:20.744Z,97.20
2022-12-13T17:01:51.505Z,104.93
2022-12-13T17:04:22.923Z,99.70
2022-12-13T17:06:54.488Z,104.37
2022-12-13T17:09:25.342Z,97.80
2022-12-13T17:11:53.739Z,95.87
2022-12-13T17:14:23.301Z,101.17
2022-12-13T17:16:53.239Z,95.57
2022-12-13T17:19:22.312Z,97.00
2022-12-13T17:21:50.633Z,97.83
2022-12-13T17:24:18.974Z,98.43
2022-12-13T17:26:54.549Z,97.97
2022-12-13T17:29:24.697Z,103.00
2022-12-13T17:31:54.587Z,103.67
2022-12-13T17:34:22.885Z,106.97
2022-12-13T17:36:51.206Z,114.17
2022-12-13T17:39:19.992Z,102.63
2022-12-13T17:41:54.875Z,125.13
2022-12-13T17:44:25.161Z,122.77
2022-12-13T17:46:55.819Z,121.10
2022-12-13T17:49:25.553Z,121.27
2022-12-13T17:51:54.795Z,121.37
2022-12-13T17:54:24.706Z,120.47
2022-12-13T17:56:53.612Z,132.47
2022-12-13T17:59:22.359Z,122.07
2022-12-13T18:01:50.926Z,128.57
2022-12-13T18:04:21.337Z,122.27
2022-12-13T18:06:51.524Z,124.23
2022-12-13T18:09:20.280Z,124.90
2022-12-13T18:11:48.672Z,137.77
2022-12-13T18:14:17.388Z,125.60
2022-12-13T18:16:45.815Z,130.63
2022-12-13T18:19:15.336Z,133.07
2022-12-13T18:21:45.039Z,134.83
2022-12-13T18:24:13.632Z,149.93
2022-12-13T18:26:42.563Z,131.67
2022-12-13T18:29:11.000Z,148.93
2022-12-13T18:31:39.802Z,137.33
2022-12-13T18:34:09.329Z,139.30
2022-12-13T18:36:39.666Z,139.13
2022-12-13T18:39:09.467Z,137.63
2022-12-13T18:41:37.936Z,140.40
2022-12-13T18:44:09.088Z,129.17
2022-12-13T18:46:44.724Z,130.10
2022-12-13T18:49:14.466Z,128.97
2022-12-13T18:51:42.790Z,130.60
2022-12-13T18:54:12.477Z,120.43
2022-12-13T18:56:41.055Z,114.80
2022-12-13T18:59:11.001Z,126.73
2022-12-13T19:01:39.413Z,116.73
2022-12-13T19:04:07.733Z,125.20
2022-12-13T19:06:36.037Z,112.83
2022-12-13T19:09:04.546Z,116.40
2022-12-13T19:11:34.334Z,122.93
2022-12-13T19:14:02.601Z,115.50
2022-12-13T19:16:31.087Z,118.67
2022-12-13T19:18:59.693Z,118.70
2022-12-13T19:21:28.510Z,123.23
2022-12-13T19:23:58.815Z,124.47
2022-12-13T19:26:29.311Z,127.83
2022-12-13T19:29:00.181Z,119.40
2022-12-13T19:31:32.074Z,118.17
2022-12-13T19:34:01.868Z,119.50
2022-12-13T19:36:31.049Z,124.30
2022-12-13T19:38:59.800Z,112.23
2022-12-13T19:41:28.376Z,116.73
2022-12-13T19:43:58.185Z,108.10
2022-12-13T19:46:27.223Z,116.17
2022-12-13T19:48:55.569Z,111.53
2022-12-13T19:51:24.059Z,107.90
2022-12-13T19:53:52.773Z,118.93
2022-12-13T19:56:23.240Z,120.17
2022-12-13T19:58:52.307Z,121.63
2022-12-13T20:01:22.349Z,125.00
2022-12-13T20:03:51.456Z,125.23
2022-12-13T20:06:22.526Z,142.83
2022-12-13T20:08:51.723Z,142.03
2022-12-13T20:11:23.015Z,149.57
2022-12-13T20:13:54.743Z,127.57
2022-12-13T20:16:26.860Z,131.60
2022-12-13T20:18:56.796Z,129.33
2022-12-13T20:21:25.862Z,116.30
2022-12-13T20:23:54.417Z,122.80
2022-12-13T20:26:25.613Z,115.57
2022-12-13T20:28:54.461Z,116.83
2022-12-13T20:31:27.241Z,103.73
2022-12-13T20:33:57.038Z,112.27
2022-12-13T20:36:28.678Z,115.10
2022-12-13T20:38:59.706Z,117.40
2022-12-13T20:41:31.000Z,117.30
2022-12-13T20:44:01.673Z,113.80
2022-12-13T20:46:32.043Z,114.37
2022-12-13T20:49:03.216Z,110.67
2022-12-13T20:51:33.891Z,116.07
2022-12-13T20:54:02.481Z,110.17
2022-12-13T20:56:35.046Z,110.80
2022-12-13T20:59:04.381Z,109.73
2022-12-13T21:01:37.838Z,111.80
2022-12-13T21:04:08.840Z,112.67
2022-12-13T21:06:40.675Z,119.03
2022-12-13T21:09:10.908Z,106.87
2022-12-13T21:11:41.576Z,110.27
2022-12-13T21:14:20.860Z,125.23
2022-12-13T21:16:54.342Z,102.10
2022-12-13T21:19:25.666Z,108.90
2022-12-13T21:21:55.225Z,112.37
2022-12-13T21:24:26.799Z,118.57
2022-12-13T21:26:56.405Z,114.27
2022-12-13T21:29:25.344Z,115.13
2022-12-13T21:31:55.417Z,126.50
2022-12-13T21:34:24.477Z,128.50
2022-12-13T21:36:54.621Z,126.93
2022-12-13T21:39:28.108Z,125.03
2022-12-13T21:41:56.879Z,132.67
2022-12-13T21:44:25.381Z,123.57
2022-12-13T21:47:12.265Z,126.83
2022-12-13T21:49:41.086Z,120.67
2022-12-13T21:52:09.422Z,140.80
2022-12-13T21:54:37.986Z,123.07
2022-12-13T21:57:23.579Z,113.27
2022-12-13T21:59:51.896Z,130.93
2022-12-13T22:02:21.621Z,133.03
2022-12-13T22:04:52.429Z,125.03
2022-12-13T22:07:23.897Z,137.43
2022-12-13T22:09:52.542Z,133.23
2022-12-13T22:12:23.998Z,146.37
2022-12-13T22:14:56.391Z,141.40
2022-12-13T22:17:35.118Z,120.13
2022-12-13T22:20:05.917Z,109.73
2022-12-13T22:22:34.504Z,111.00
2022-12-13T22:25:02.800Z,112.67
2022-12-13T22:27:31.106Z,116.77
2022-12-13T22:29:59.661Z,105.80
2022-12-13T22:32:32.357Z,105.10
2022-12-13T22:35:00.996Z,107.50
2022-12-13T22:37:30.212Z,113.67
2022-12-13T22:39:58.624Z,115.37
2022-12-13T22:42:27.332Z,108.73
2022-12-13T22:44:56.303Z,119.13
2022-12-13T22:47:24.658Z,104.43
2022-12-13T22:49:54.295Z,114.87
2022-12-13T22:52:22.862Z,111.63
2022-12-13T22:54:51.146Z,108.20
2022-12-13T22:57:19.397Z,111.33
2022-12-13T22:59:47.648Z,109.07
2022-12-13T23:02:16.796Z,121.70
2022-12-13T23:04:45.179Z,105.00
2022-12-13T23:07:15.745Z,115.50
2022-12-13T23:09:44.238Z,107.33
2022-12-13T23:12:31.013Z,117.00
2022-12-13T23:14:59.238Z,109.77
2022-12-13T23:17:27.574Z,114.93
2022-12-13T23:19:55.864Z,106.53
2022-12-13T23:22:27.326Z,114.03
2022-12-13T23:24:55.629Z,112.17
2022-12-13T23:27:25.627Z,109.03
2022-12-13T23:29:53.871Z,98.93
2022-12-13T23:32:22.212Z,109.10
2022-12-13T23:34:50.537Z,113.40
2022-12-13T23:37:18.800Z,118.10
2022-12-13T23:39:48.501Z,109.27
2022-12-13T23:42:16.827Z,109.60
2022-12-13T23:44:45.059Z,111.03
2022-12-13T23:47:13.468Z,111.33
2022-12-13T23:49:42.586Z,106.43
2022-12-13T23:52:10.788Z,109.27
2022-12-13T23:54:39.015Z,109.50
2022-12-13T23:57:08.654Z,116.00
2022-12-13T23:59:36.953Z,119.70
